createdAt,value
2019-05-15T00:00:11.377Z,5.67
2019-05-15T00:03:38.819Z,6.37
2019-05-15T00:07:01.173Z,6.20
2019-05-15T00:10:24.352Z,5.47
2019-05-15T00:13:48.321Z,4.73
2019-05-15T00:17:11.864Z,4.40
2019-05-15T00:20:34.994Z,5.07
2019-05-15T00:23:59.420Z,4.70
2019-05-15T00:27:23.813Z,4.40
2019-05-15T00:30:48.108Z,4.20
2019-05-15T00:34:13.009Z,4.33
2019-05-15T00:37:38.536Z,3.83
2019-05-15T00:41:01.494Z,5.43
2019-05-15T00:44:25.014Z,4.40
2019-05-15T00:47:48.812Z,4.17
2019-05-15T00:51:14.760Z,4.73
2019-05-15T00:54:38.843Z,3.93
2019-05-15T00:58:02.187Z,4.23
2019-05-15T01:01:25.765Z,4.30
2019-05-15T01:04:48.849Z,4.23
2019-05-15T01:08:11.979Z,4.23
2019-05-15T01:11:38.203Z,4.47
2019-05-15T01:15:01.403Z,4.43
2019-05-15T01:18:25.023Z,4.33
2019-05-15T01:21:48.498Z,4.50
2019-05-15T01:25:12.009Z,4.30
2019-05-15T01:28:38.603Z,4.47
2019-05-15T01:32:02.367Z,4.40
2019-05-15T01:35:25.549Z,4.00
2019-05-15T01:38:48.899Z,4.53
2019-05-15T01:42:13.204Z,4.97
2019-05-15T01:45:39.063Z,4.57
2019-05-15T01:49:02.832Z,5.00
2019-05-15T01:52:27.933Z,4.17
2019-05-15T01:55:51.267Z,4.50
2019-05-15T01:59:14.472Z,5.03
2019-05-15T02:02:38.896Z,5.20
2019-05-15T02:06:02.482Z,4.70
2019-05-15T02:09:27.921Z,4.80
2019-05-15T02:12:50.551Z,4.93
2019-05-15T02:16:13.695Z,4.37
2019-05-15T02:19:39.172Z,6.10
2019-05-15T02:23:02.518Z,4.73
2019-05-15T02:26:27.999Z,4.87
2019-05-15T02:29:50.917Z,4.90
2019-05-15T02:33:14.162Z,5.30
2019-05-15T02:36:39.983Z,5.87
2019-05-15T02:40:02.502Z,5.37
2019-05-15T02:43:25.809Z,5.67
2019-05-15T02:46:49.929Z,6.80
2019-05-15T02:50:13.785Z,5.70
2019-05-15T02:53:39.594Z,5.63
2019-05-15T02:57:01.942Z,5.77
2019-05-15T03:00:37.763Z,5.53
2019-05-15T03:03:50.516Z,5.83
2019-05-15T03:07:13.683Z,5.87
2019-05-15T03:10:39.968Z,5.70
2019-05-15T03:14:02.314Z,5.07
2019-05-15T03:17:29.430Z,5.37
2019-05-15T03:20:51.844Z,5.20
2019-05-15T03:24:15.076Z,5.60
2019-05-15T03:27:39.476Z,4.97
2019-05-15T03:31:22.398Z,6.07
2019-05-15T03:34:36.541Z,5.07
2019-05-15T03:37:53.380Z,6.10
2019-05-15T03:41:19.486Z,6.07
2019-05-15T03:44:41.772Z,5.47
2019-05-15T03:48:05.104Z,5.63
2019-05-15T03:51:28.940Z,6.07
2019-05-15T03:54:52.757Z,5.13
2019-05-15T03:58:20.880Z,5.80
2019-05-15T04:01:43.869Z,6.20
2019-05-15T04:05:06.363Z,6.57
2019-05-15T04:08:30.342Z,6.10
2019-05-15T04:11:53.739Z,6.27
2019-05-15T04:15:18.779Z,6.50
2019-05-15T04:18:42.326Z,7.17
2019-05-15T04:22:08.966Z,7.20
2019-05-15T04:25:39.124Z,7.57
2019-05-15T04:29:02.721Z,8.13
2019-05-15T04:32:28.594Z,6.40
2019-05-15T04:35:50.842Z,6.80
2019-05-15T04:39:14.235Z,5.67
2019-05-15T04:42:39.773Z,5.93
2019-05-15T04:46:03.021Z,5.63
2019-05-15T04:49:29.058Z,5.33
2019-05-15T04:52:51.738Z,5.60
2019-05-15T04:56:15.096Z,5.13
2019-05-15T04:59:38.970Z,5.07
2019-05-15T05:03:02.672Z,5.73
2019-05-15T05:06:29.240Z,5.60
2019-05-15T05:09:51.422Z,5.63
2019-05-15T05:13:14.655Z,5.43
2019-05-15T05:16:39.333Z,5.50
2019-05-15T05:20:03.396Z,6.23
2019-05-15T05:23:28.336Z,5.23
2019-05-15T05:26:54.753Z,5.60
2019-05-15T05:30:19.084Z,5.33
2019-05-15T05:33:45.950Z,5.27
2019-05-15T05:37:09.743Z,4.33
2019-05-15T05:40:33.079Z,4.47
2019-05-15T05:43:58.574Z,5.13
2019-05-15T05:47:21.846Z,4.77
2019-05-15T05:50:45.119Z,4.97
2019-05-15T05:54:08.507Z,4.73
2019-05-15T05:57:31.841Z,4.70
2019-05-15T06:00:54.995Z,4.83
2019-05-15T06:04:18.709Z,5.13
2019-05-15T06:07:42.530Z,5.13
2019-05-15T06:11:05.811Z,4.80
2019-05-15T06:14:29.087Z,5.60
2019-05-15T06:17:52.251Z,5.13
2019-05-15T06:21:17.898Z,5.13
2019-05-15T06:24:41.426Z,5.60
2019-05-15T06:28:04.890Z,4.73
2019-05-15T06:31:28.228Z,4.37
2019-05-15T06:34:52.109Z,4.70
2019-05-15T06:38:15.381Z,4.70
2019-05-15T06:41:39.150Z,4.90
2019-05-15T06:45:02.747Z,4.07
2019-05-15T06:48:26.069Z,4.37
2019-05-15T06:51:49.389Z,4.03
2019-05-15T06:55:12.555Z,3.57
2019-05-15T06:58:38.959Z,2.97
2019-05-15T07:02:02.109Z,2.40
2019-05-15T07:05:25.357Z,2.60
2019-05-15T07:08:49.641Z,2.57
2019-05-15T07:12:13.328Z,3.43
2019-05-15T07:15:38.433Z,3.20
2019-05-15T07:19:01.848Z,2.33
2019-05-15T07:22:28.763Z,2.17
2019-05-15T07:25:51.320Z,2.50
2019-05-15T07:29:14.619Z,2.20
2019-05-15T07:32:39.677Z,2.27
2019-05-15T07:36:02.959Z,2.40
2019-05-15T07:39:28.843Z,2.20
2019-05-15T07:42:52.584Z,2.33
2019-05-15T07:46:15.767Z,2.20
2019-05-15T07:49:39.081Z,2.63
2019-05-15T07:53:02.891Z,1.90
2019-05-15T07:56:26.160Z,1.77
2019-05-15T07:59:49.745Z,2.10
2019-05-15T08:03:13.105Z,2.37
2019-05-15T08:06:38.862Z,2.27
2019-05-15T08:10:11.078Z,2.13
2019-05-15T08:13:34.303Z,2.30
2019-05-15T08:16:59.223Z,2.73
2019-05-15T08:20:23.676Z,2.83
2019-05-15T08:23:48.486Z,1.80
2019-05-15T08:27:12.019Z,1.87
2019-05-15T08:30:35.397Z,1.83
2019-05-15T08:34:12.351Z,1.93
2019-05-15T08:37:23.964Z,2.10
2019-05-15T08:40:49.025Z,1.77
2019-05-15T08:44:18.596Z,1.57
2019-05-15T08:47:42.635Z,1.80
2019-05-15T08:51:08.499Z,1.77
2019-05-15T08:54:31.236Z,1.85
2019-05-15T08:57:55.959Z,1.70
2019-05-15T09:01:20.602Z,2.10
2019-05-15T09:04:44.097Z,1.95
2019-05-15T09:08:09.324Z,1.55
2019-05-15T09:11:32.519Z,1.67
2019-05-15T09:14:58.092Z,1.50
2019-05-15T09:18:21.107Z,1.85
2019-05-15T09:21:44.333Z,1.50
2019-05-15T09:25:10.058Z,1.75
2019-05-15T09:28:33.261Z,2.05
2019-05-15T09:31:58.681Z,2.08
2019-05-15T09:35:22.575Z,1.75
2019-05-15T09:38:46.022Z,1.80
2019-05-15T09:42:09.215Z,1.60
2019-05-15T09:45:32.533Z,1.80
2019-05-15T09:48:55.895Z,1.92
2019-05-15T09:52:22.694Z,1.77
2019-05-15T09:55:44.420Z,1.98
2019-05-15T09:59:08.864Z,1.70
2019-05-15T10:02:32.954Z,1.98
2019-05-15T10:05:56.172Z,1.80
2019-05-15T10:09:19.422Z,2.20
2019-05-15T10:12:42.753Z,2.22
2019-05-15T10:16:08.202Z,2.10
2019-05-15T10:19:31.524Z,2.50
2019-05-15T10:22:54.946Z,2.10
2019-05-15T10:26:19.241Z,2.12
2019-05-15T10:29:48.273Z,2.58
2019-05-15T10:33:11.120Z,2.50
2019-05-15T10:36:34.460Z,2.12
2019-05-15T10:39:58.521Z,2.50
2019-05-15T10:43:21.956Z,1.95
2019-05-15T10:46:48.072Z,2.08
2019-05-15T10:50:12.261Z,2.85
2019-05-15T10:53:35.467Z,2.22
2019-05-15T10:57:00.798Z,2.52
2019-05-15T11:00:24.116Z,2.70
2019-05-15T11:03:49.509Z,2.33
2019-05-15T11:07:13.159Z,2.27
2019-05-15T11:10:38.670Z,2.30
2019-05-15T11:14:01.351Z,2.70
2019-05-15T11:17:24.999Z,2.37
2019-05-15T11:20:48.958Z,1.82
2019-05-15T11:24:12.554Z,2.85
2019-05-15T11:27:35.888Z,2.12
2019-05-15T11:30:59.553Z,2.17
2019-05-15T11:34:23.006Z,1.82
2019-05-15T11:37:48.796Z,2.37
2019-05-15T11:41:11.630Z,2.45
2019-05-15T11:44:34.814Z,2.08
2019-05-15T11:48:01.009Z,2.30
2019-05-15T11:51:23.398Z,2.42
2019-05-15T11:54:49.367Z,1.80
2019-05-15T11:58:11.956Z,2.50
2019-05-15T12:01:35.349Z,4.10
2019-05-15T12:04:59.022Z,2.67
2019-05-15T12:08:22.303Z,2.17
2019-05-15T12:11:46.059Z,1.90
2019-05-15T12:15:09.626Z,3.25
2019-05-15T12:18:33.219Z,1.95
2019-05-15T12:21:59.812Z,2.15
2019-05-15T12:25:22.083Z,2.10
2019-05-15T12:28:45.375Z,3.20
2019-05-15T12:32:23.408Z,9.08
2019-05-15T12:35:34.329Z,5.75
2019-05-15T12:38:57.607Z,15.53
2019-05-15T12:59:44.627Z,2.30
2019-05-15T13:02:52.125Z,2.45
2019-05-15T13:06:19.046Z,2.15
2019-05-15T13:09:41.624Z,2.02
2019-05-15T13:13:08.854Z,2.20
2019-05-15T13:16:31.347Z,1.67
2019-05-15T13:19:54.765Z,1.80
2019-05-15T13:23:17.986Z,2.33
2019-05-15T13:26:41.278Z,2.50
2019-05-15T13:30:05.626Z,2.12
2019-05-15T13:33:28.820Z,2.15
2019-05-15T13:36:52.557Z,2.62
2019-05-15T13:40:18.451Z,2.70
2019-05-15T13:43:41.132Z,2.47
2019-05-15T13:47:04.340Z,2.90
2019-05-15T13:50:28.508Z,2.45
2019-05-15T13:53:53.654Z,2.02
2019-05-15T13:57:18.077Z,2.22
2019-05-15T14:00:42.588Z,2.33
2019-05-15T14:04:08.381Z,2.70
2019-05-15T14:07:45.003Z,2.87
2019-05-15T14:10:58.240Z,2.25
2019-05-15T14:14:21.549Z,1.82
2019-05-15T14:17:44.996Z,2.52
2019-05-15T14:21:08.899Z,2.83
2019-05-15T14:24:32.720Z,2.42
2019-05-15T14:27:55.920Z,2.50
2019-05-15T14:31:19.090Z,2.47
2019-05-15T14:34:42.292Z,2.77
2019-05-15T14:38:06.882Z,2.20
2019-05-15T14:41:31.068Z,2.17
2019-05-15T14:44:54.451Z,2.87
2019-05-15T14:48:19.077Z,2.10
2019-05-15T14:51:42.488Z,2.20
2019-05-15T14:55:06.144Z,2.40
2019-05-15T14:58:29.425Z,2.55
2019-05-15T15:01:53.871Z,2.70
2019-05-15T15:05:21.735Z,2.05
2019-05-15T15:08:42.177Z,2.00
2019-05-15T15:12:08.036Z,2.25
2019-05-15T15:15:31.307Z,2.72
2019-05-15T15:18:55.003Z,2.80
2019-05-15T15:22:18.536Z,2.35
2019-05-15T15:25:42.149Z,2.40
2019-05-15T15:29:05.502Z,2.00
2019-05-15T15:32:28.860Z,2.30
2019-05-15T15:35:52.240Z,2.30
2019-05-15T15:39:15.522Z,2.55
2019-05-15T15:42:39.693Z,2.47
2019-05-15T15:46:03.126Z,2.37
2019-05-15T15:49:27.953Z,3.22
2019-05-15T15:52:51.795Z,2.35
2019-05-15T15:56:15.102Z,2.85
2019-05-15T15:59:38.807Z,2.70
2019-05-15T16:03:04.126Z,3.25
2019-05-15T16:06:29.379Z,2.85
2019-05-15T16:09:53.921Z,2.50
2019-05-15T16:13:18.674Z,2.52
2019-05-15T16:16:42.491Z,2.25
2019-05-15T16:20:06.514Z,2.60
2019-05-15T16:23:29.861Z,2.50
2019-05-15T16:26:53.712Z,2.55
2019-05-15T16:30:18.760Z,2.55
2019-05-15T16:33:42.334Z,2.70
2019-05-15T16:37:05.646Z,2.72
2019-05-15T16:40:28.947Z,2.00
2019-05-15T16:43:52.190Z,1.90
2019-05-15T16:47:15.480Z,2.20
2019-05-15T16:50:38.883Z,2.37
2019-05-15T16:54:02.099Z,2.17
2019-05-15T16:57:25.239Z,2.30
2019-05-15T17:00:49.691Z,1.90
2019-05-15T17:04:13.036Z,2.50
2019-05-15T17:07:38.865Z,2.12
2019-05-15T17:11:01.499Z,2.10
2019-05-15T17:14:24.884Z,2.40
2019-05-15T17:17:48.762Z,2.50
2019-05-15T17:21:13.197Z,2.50
2019-05-15T17:24:38.696Z,2.50
2019-05-15T17:28:01.785Z,3.25
2019-05-15T17:31:28.588Z,2.40
2019-05-15T17:34:52.088Z,2.15
2019-05-15T17:38:15.388Z,2.35
2019-05-15T17:41:39.035Z,2.20
2019-05-15T17:45:02.910Z,1.90
2019-05-15T17:48:28.812Z,2.47
2019-05-15T17:51:52.483Z,2.15
2019-05-15T17:55:18.224Z,2.02
2019-05-15T17:58:41.171Z,2.05
2019-05-15T18:02:08.701Z,1.80
2019-05-15T18:05:32.082Z,2.70
2019-05-15T18:08:55.263Z,1.92
2019-05-15T18:12:18.537Z,2.17
2019-05-15T18:15:41.965Z,1.90
2019-05-15T18:19:05.380Z,2.20
2019-05-15T18:22:29.406Z,3.08
2019-05-15T18:25:53.882Z,2.90
2019-05-15T18:29:17.302Z,2.45
2019-05-15T18:32:40.917Z,2.15
2019-05-15T18:36:04.822Z,2.40
2019-05-15T18:39:28.471Z,2.98
2019-05-15T18:42:52.177Z,2.40
2019-05-15T18:46:18.151Z,2.72
2019-05-15T18:49:41.441Z,3.25
2019-05-15T18:53:04.665Z,2.47
2019-05-15T18:56:29.756Z,1.92
2019-05-15T18:59:57.916Z,2.25
2019-05-15T19:03:22.851Z,2.40
2019-05-15T19:06:46.032Z,2.55
2019-05-15T19:10:09.901Z,2.65
2019-05-15T19:13:35.552Z,2.42
2019-05-15T19:16:59.312Z,2.70
2019-05-15T19:20:23.635Z,2.58
2019-05-15T19:23:47.956Z,3.00
2019-05-15T19:27:12.102Z,2.67
2019-05-15T19:30:35.507Z,3.08
2019-05-15T19:33:59.966Z,4.03
2019-05-15T19:37:24.087Z,4.25
2019-05-15T19:40:47.932Z,3.92
2019-05-15T19:44:12.319Z,4.85
2019-05-15T19:47:38.415Z,4.22
2019-05-15T19:51:01.571Z,4.72
2019-05-15T19:54:25.371Z,4.30
2019-05-15T19:57:48.962Z,4.37
2019-05-15T20:01:13.353Z,3.22
2019-05-15T20:04:38.557Z,3.55
2019-05-15T20:08:02.468Z,3.12
2019-05-15T20:11:27.770Z,2.17
2019-05-15T20:14:51.571Z,2.70
2019-05-15T20:18:18.270Z,2.25
2019-05-15T20:21:41.625Z,2.65
2019-05-15T20:25:08.062Z,2.98
2019-05-15T20:28:31.247Z,2.15
2019-05-15T20:31:55.912Z,2.22
2019-05-15T20:35:20.293Z,2.30
2019-05-15T20:38:44.066Z,2.35
2019-05-15T20:42:08.858Z,2.03
2019-05-15T20:45:32.338Z,3.33
2019-05-15T20:48:58.118Z,2.58
2019-05-15T20:52:22.079Z,1.77
2019-05-15T20:55:48.303Z,2.67
2019-05-15T20:59:11.211Z,2.60
2019-05-15T21:02:34.761Z,2.87
2019-05-15T21:06:00.852Z,2.83
2019-05-15T21:09:23.395Z,2.92
2019-05-15T21:12:48.623Z,3.90
2019-05-15T21:16:12.070Z,3.20
2019-05-15T21:19:35.320Z,3.33
2019-05-15T21:23:01.430Z,3.20
2019-05-15T21:26:23.998Z,3.00
2019-05-15T21:29:49.037Z,3.00
2019-05-15T21:33:12.783Z,2.97
2019-05-15T21:36:39.203Z,2.90
2019-05-15T21:40:04.209Z,3.17
2019-05-15T21:43:27.546Z,3.23
2019-05-15T21:46:50.813Z,2.97
2019-05-15T21:50:15.307Z,3.10
2019-05-15T21:53:39.575Z,2.60
2019-05-15T21:57:18.850Z,2.83
2019-05-15T22:00:35.174Z,3.03
2019-05-15T22:03:59.030Z,3.67
2019-05-15T22:07:22.227Z,4.17
2019-05-15T22:10:48.031Z,5.07
2019-05-15T22:14:10.660Z,4.70
2019-05-15T22:17:33.865Z,5.10
2019-05-15T22:20:58.539Z,4.87
2019-05-15T22:24:22.011Z,4.73
2019-05-15T22:27:45.545Z,5.43
2019-05-15T22:31:09.076Z,5.77
2019-05-15T22:34:32.374Z,4.87
2019-05-15T22:37:55.527Z,4.80
2019-05-15T22:41:19.177Z,4.00
2019-05-15T22:44:42.670Z,4.20
2019-05-15T22:48:05.851Z,3.70
2019-05-15T22:51:29.224Z,3.83
2019-05-15T22:54:52.598Z,3.93
2019-05-15T22:58:16.240Z,3.60
2019-05-15T23:01:39.489Z,3.50
2019-05-15T23:05:02.712Z,3.80
2019-05-15T23:08:25.852Z,3.87
2019-05-15T23:11:49.457Z,2.90
2019-05-15T23:15:12.943Z,3.50
2019-05-15T23:18:36.283Z,3.50
2019-05-15T23:21:59.888Z,3.70
2019-05-15T23:25:23.109Z,3.17
2019-05-15T23:28:48.187Z,3.50
2019-05-15T23:32:11.494Z,3.30
2019-05-15T23:35:38.218Z,3.90
2019-05-15T23:38:59.887Z,4.00
2019-05-15T23:42:23.201Z,3.77
2019-05-15T23:45:48.358Z,3.10
2019-05-15T23:49:11.549Z,3.73
2019-05-15T23:52:35.547Z,2.87
2019-05-15T23:55:58.978Z,4.00
2019-05-15T23:59:22.224Z,3.83
